createdAt,value
2022-09-13T00:00:51.682Z,100908.27
2022-09-13T00:03:41.139Z,100904.54
2022-09-13T00:06:16.048Z,100900.17
2022-09-13T00:08:48.484Z,100896.73
2022-09-13T00:11:23.419Z,100894.05
2022-09-13T00:13:58.489Z,100888.85
2022-09-13T00:16:32.402Z,100891.41
2022-09-13T00:19:04.441Z,100890.05
2022-09-13T00:21:36.819Z,100891.81
2022-09-13T00:24:09.593Z,100889.70
2022-09-13T00:26:41.435Z,100886.05
2022-09-13T00:29:13.276Z,100884.05
2022-09-13T00:31:45.169Z,100881.66
2022-09-13T00:34:17.722Z,100879.14
2022-09-13T00:36:49.656Z,100873.88
2022-09-13T00:39:22.012Z,100869.75
2022-09-13T00:41:54.058Z,100867.45
2022-09-13T00:44:55.183Z,100868.98
2022-09-13T00:47:33.238Z,100868.45
2022-09-13T00:50:12.519Z,100866.48
2022-09-13T00:52:48.383Z,100863.96
2022-09-13T00:55:25.552Z,100863.57
2022-09-13T00:58:01.534Z,100862.09
2022-09-13T01:00:33.853Z,100856.60
2022-09-13T01:03:11.992Z,100855.70
2022-09-13T01:05:48.800Z,100852.83
2022-09-13T01:08:23.174Z,100846.47
2022-09-13T01:10:58.294Z,100848.21
2022-09-13T01:13:35.118Z,100851.70
2022-09-13T01:16:07.964Z,100845.90
2022-09-13T01:18:40.330Z,100845.56
2022-09-13T01:21:49.011Z,100842.08
2022-09-13T01:24:48.219Z,100839.64
2022-09-13T01:27:33.907Z,100840.16
2022-09-13T01:30:19.251Z,100837.33
2022-09-13T01:33:08.047Z,100832.50
2022-09-13T01:35:51.931Z,100831.91
2022-09-13T01:38:35.815Z,100831.91
2022-09-13T01:41:21.481Z,100832.95
2022-09-13T01:44:01.532Z,100834.34
2022-09-13T01:46:40.284Z,100833.08
2022-09-13T01:49:21.514Z,100832.85
2022-09-13T01:52:00.653Z,100831.27
2022-09-13T01:54:39.604Z,100829.55
2022-09-13T01:57:17.789Z,100825.67
2022-09-13T01:59:54.601Z,100829.73
2022-09-13T02:02:36.900Z,100824.10
2022-09-13T02:05:28.856Z,100826.73
2022-09-13T02:08:06.299Z,100826.58
2022-09-13T02:10:42.837Z,100821.30
2022-09-13T02:13:23.837Z,100820.92
2022-09-13T02:16:00.927Z,100820.38
2022-09-13T02:18:36.943Z,100813.70
2022-09-13T02:21:13.740Z,100807.69
2022-09-13T02:23:50.885Z,100804.44
2022-09-13T02:26:25.354Z,100803.70
2022-09-13T02:29:00.524Z,100803.48
2022-09-13T02:31:38.957Z,100800.28
2022-09-13T02:34:16.407Z,100796.91
2022-09-13T02:36:50.411Z,100794.08
2022-09-13T02:39:25.917Z,100795.27
2022-09-13T02:42:01.734Z,100796.81
2022-09-13T02:44:38.374Z,100792.89
2022-09-13T02:47:21.638Z,100791.14
2022-09-13T02:50:03.655Z,100785.37
2022-09-13T02:52:46.176Z,100783.21
2022-09-13T02:55:25.983Z,100783.89
2022-09-13T02:58:06.049Z,100783.45
2022-09-13T03:00:38.193Z,100778.48
2022-09-13T03:03:13.824Z,100777.19
2022-09-13T03:05:46.376Z,100772.66
2022-09-13T03:08:20.111Z,100770.83
2022-09-13T03:11:04.983Z,100764.77
2022-09-13T03:13:56.218Z,100764.81
2022-09-13T03:16:43.809Z,100760.70
2022-09-13T03:19:40.009Z,100753.04
2022-09-13T03:22:25.900Z,100749.39
2022-09-13T03:25:08.397Z,100744.20
2022-09-13T03:27:53.439Z,100738.14
2022-09-13T03:30:25.389Z,100736.28
2022-09-13T03:33:04.827Z,100733.45
2022-09-13T03:35:42.538Z,100728.27
2022-09-13T03:38:18.274Z,100726.13
2022-09-13T03:40:54.843Z,100727.28
2022-09-13T03:43:35.777Z,100725.11
2022-09-13T03:46:12.225Z,100717.17
2022-09-13T03:48:46.436Z,100716.23
2022-09-13T03:51:18.656Z,100711.70
2022-09-13T03:53:56.385Z,100707.41
2022-09-13T03:56:28.291Z,100707.39
2022-09-13T03:59:00.079Z,100702.74
2022-09-13T04:01:32.333Z,100700.94
2022-09-13T04:04:04.375Z,100696.06
2022-09-13T04:06:36.521Z,100694.45
2022-09-13T04:09:08.339Z,100693.83
2022-09-13T04:11:42.056Z,100691.23
2022-09-13T04:14:18.553Z,100689.06
2022-09-13T04:16:50.555Z,100687.31
2022-09-13T04:19:23.385Z,100683.26
2022-09-13T04:21:57.045Z,100682.23
2022-09-13T04:24:31.233Z,100683.16
2022-09-13T04:27:06.678Z,100688.48
2022-09-13T04:29:39.016Z,100690.03
2022-09-13T04:32:11.181Z,100691.79
2022-09-13T04:34:43.196Z,100694.37
2022-09-13T04:37:15.018Z,100695.18
2022-09-13T04:39:47.030Z,100695.43
2022-09-13T04:42:19.794Z,100695.27
2022-09-13T04:44:51.562Z,100689.89
2022-09-13T04:47:23.656Z,100685.84
2022-09-13T04:49:55.437Z,100685.96
2022-09-13T04:52:27.346Z,100682.73
2022-09-13T04:55:01.665Z,100680.67
2022-09-13T04:57:34.213Z,100678.00
2022-09-13T05:00:07.976Z,100680.07
2022-09-13T05:02:39.912Z,100674.76
2022-09-13T05:05:12.348Z,100672.65
2022-09-13T05:07:44.338Z,100672.60
2022-09-13T05:10:19.388Z,100672.10
2022-09-13T05:12:51.534Z,100670.36
2022-09-13T05:15:23.432Z,100665.64
2022-09-13T05:17:55.279Z,100664.63
2022-09-13T05:20:27.093Z,100657.64
2022-09-13T05:22:59.562Z,100658.52
2022-09-13T05:25:31.382Z,100664.52
2022-09-13T05:28:03.521Z,100657.31
2022-09-13T05:30:42.104Z,100656.82
2022-09-13T05:33:14.175Z,100657.04
2022-09-13T05:35:46.171Z,100658.51
2022-09-13T05:38:18.025Z,100661.55
2022-09-13T05:40:55.145Z,100657.71
2022-09-13T05:43:28.669Z,100653.07
2022-09-13T05:46:05.679Z,100647.44
2022-09-13T05:48:37.870Z,100645.48
2022-09-13T05:51:12.252Z,100642.94
2022-09-13T05:53:45.977Z,100639.36
2022-09-13T05:56:20.488Z,100641.44
2022-09-13T05:58:55.081Z,100636.02
2022-09-13T06:01:29.446Z,100627.20
2022-09-13T06:04:01.841Z,100629.69
2022-09-13T06:06:33.599Z,100626.73
2022-09-13T06:09:06.959Z,100621.69
2022-09-13T06:11:38.917Z,100623.92
2022-09-13T06:14:11.165Z,100617.59
2022-09-13T06:16:42.982Z,100612.52
2022-09-13T06:19:15.163Z,100605.75
2022-09-13T06:21:47.076Z,100606.08
2022-09-13T06:24:18.830Z,100604.31
2022-09-13T06:26:51.001Z,100606.14
2022-09-13T06:29:22.883Z,100606.92
2022-09-13T06:31:55.089Z,100610.89
2022-09-13T06:34:31.096Z,100612.93
2022-09-13T06:37:04.276Z,100612.35
2022-09-13T06:39:36.325Z,100606.46
2022-09-13T06:42:08.669Z,100605.52
2022-09-13T06:44:46.073Z,100610.98
2022-09-13T06:47:18.033Z,100613.20
2022-09-13T06:49:50.352Z,100612.90
2022-09-13T06:52:22.236Z,100611.64
2022-09-13T06:54:54.254Z,100610.45
2022-09-13T06:57:26.244Z,100603.45
2022-09-13T06:59:57.993Z,100606.95
2022-09-13T07:02:29.878Z,100600.59
2022-09-13T07:05:01.923Z,100599.54
2022-09-13T07:07:34.108Z,100595.30
2022-09-13T07:10:07.401Z,100594.39
2022-09-13T07:12:41.236Z,100590.98
2022-09-13T07:15:14.404Z,100588.28
2022-09-13T07:17:46.213Z,100585.59
2022-09-13T07:20:18.211Z,100586.23
2022-09-13T07:22:50.340Z,100582.23
2022-09-13T07:25:22.671Z,100581.50
2022-09-13T07:27:54.618Z,100575.33
2022-09-13T07:30:27.009Z,100569.29
2022-09-13T07:32:58.972Z,100565.71
2022-09-13T07:35:30.970Z,100565.15
2022-09-13T07:38:02.929Z,100568.12
2022-09-13T07:40:36.837Z,100568.08
2022-09-13T07:43:08.701Z,100560.16
2022-09-13T07:45:40.597Z,100557.14
2022-09-13T07:48:12.552Z,100553.91
2022-09-13T07:50:44.411Z,100550.48
2022-09-13T07:53:16.272Z,100553.25
2022-09-13T07:55:48.235Z,100552.02
2022-09-13T07:58:20.501Z,100543.42
2022-09-13T08:00:52.535Z,100543.42
2022-09-13T08:03:24.354Z,100545.00
2022-09-13T08:05:56.344Z,100540.55
2022-09-13T08:08:28.407Z,100541.03
2022-09-13T08:11:01.431Z,100543.10
2022-09-13T08:13:34.294Z,100537.90
2022-09-13T08:16:08.270Z,100534.64
2022-09-13T08:18:44.056Z,100535.27
2022-09-13T08:21:16.717Z,100536.52
2022-09-13T08:23:48.989Z,100538.88
2022-09-13T08:26:21.155Z,100536.31
2022-09-13T08:28:59.049Z,100530.31
2022-09-13T08:31:32.075Z,100530.84
2022-09-13T08:34:04.004Z,100527.36
2022-09-13T08:36:36.990Z,100521.87
2022-09-13T08:39:10.198Z,100516.61
2022-09-13T08:42:21.135Z,100514.02
2022-09-13T08:44:57.654Z,100508.39
2022-09-13T08:47:37.142Z,100507.33
2022-09-13T08:50:18.371Z,100500.50
2022-09-13T08:53:03.882Z,100497.65
2022-09-13T08:55:47.021Z,100501.17
2022-09-13T08:58:35.125Z,100505.27
2022-09-13T09:01:14.844Z,100500.83
2022-09-13T09:03:53.033Z,100499.25
2022-09-13T09:06:25.528Z,100501.13
2022-09-13T09:09:02.661Z,100499.74
2022-09-13T09:11:43.119Z,100489.28
2022-09-13T09:14:25.789Z,100484.00
2022-09-13T09:17:04.192Z,100481.64
2022-09-13T09:19:40.938Z,100480.90
2022-09-13T09:22:18.475Z,100477.48
2022-09-13T09:24:54.674Z,100472.07
2022-09-13T09:27:27.209Z,100464.50
2022-09-13T09:29:59.949Z,100463.60
2022-09-13T09:32:48.582Z,100458.41
2022-09-13T09:35:29.383Z,100450.40
2022-09-13T09:38:31.528Z,100439.90
2022-09-13T09:41:06.881Z,100437.11
2022-09-13T09:43:45.749Z,100433.73
2022-09-13T09:46:22.319Z,100428.32
2022-09-13T09:48:58.411Z,100421.80
2022-09-13T09:51:32.330Z,100419.80
2022-09-13T09:54:06.502Z,100409.02
2022-09-13T09:56:38.698Z,100406.38
2022-09-13T09:59:29.554Z,100404.41
2022-09-13T10:02:04.994Z,100397.27
2022-09-13T10:04:37.226Z,100397.70
2022-09-13T10:07:27.218Z,100399.52
2022-09-13T10:10:05.942Z,100400.52
2022-09-13T10:12:41.049Z,100398.66
2022-09-13T10:15:20.515Z,100403.37
2022-09-13T10:18:40.030Z,100404.14
2022-09-13T10:21:21.455Z,100398.96
2022-09-13T10:23:59.761Z,100393.95
2022-09-13T10:26:36.529Z,100389.79
2022-09-13T10:29:14.445Z,100379.34
2022-09-13T10:31:50.156Z,100374.77
2022-09-13T10:34:26.176Z,100369.61
2022-09-13T10:37:01.386Z,100368.27
2022-09-13T10:39:37.548Z,100364.73
2022-09-13T10:42:11.537Z,100361.63
2022-09-13T10:44:47.538Z,100359.13
2022-09-13T10:47:26.111Z,100356.98
2022-09-13T10:50:00.434Z,100347.75
2022-09-13T10:52:35.687Z,100337.98
2022-09-13T10:55:37.568Z,100331.22
2022-09-13T10:58:19.858Z,100318.33
2022-09-13T11:01:15.467Z,100318.73
2022-09-13T11:04:35.181Z,100325.00
2022-09-13T11:07:28.221Z,100330.89
2022-09-13T11:10:09.763Z,100334.02
2022-09-13T11:12:47.881Z,100334.25
2022-09-13T11:15:31.010Z,100326.30
2022-09-13T11:18:34.288Z,100328.39
2022-09-13T11:21:18.085Z,100335.30
2022-09-13T11:24:17.940Z,100325.08
2022-09-13T11:27:01.387Z,100311.79
2022-09-13T11:29:45.998Z,100306.37
2022-09-13T11:32:32.637Z,100304.52
2022-09-13T11:35:28.151Z,100310.20
2022-09-13T11:38:14.165Z,100301.73
2022-09-13T11:40:59.893Z,100299.30
2022-09-13T11:43:49.137Z,100293.11
2022-09-13T11:46:32.414Z,100287.64
2022-09-13T11:49:28.295Z,100278.63
2022-09-13T11:52:10.599Z,100278.64
2022-09-13T11:54:56.607Z,100273.16
2022-09-13T11:57:37.270Z,100276.08
2022-09-13T12:00:22.119Z,100272.20
2022-09-13T12:03:04.594Z,100269.73
2022-09-13T12:05:42.746Z,100269.11
2022-09-13T12:08:19.656Z,100262.95
2022-09-13T12:10:55.363Z,100253.18
2022-09-13T12:13:31.231Z,100248.99
2022-09-13T12:16:06.155Z,100244.09
2022-09-13T12:18:44.682Z,100244.04
2022-09-13T12:21:23.117Z,100250.49
2022-09-13T12:24:02.848Z,100249.38
2022-09-13T12:26:41.173Z,100248.42
2022-09-13T12:29:20.466Z,100248.04
2022-09-13T12:31:54.159Z,100249.45
2022-09-13T12:34:32.601Z,100248.20
2022-09-13T12:37:28.300Z,100250.83
2022-09-13T12:40:37.247Z,100243.45
2022-09-13T12:43:37.389Z,100240.33
2022-09-13T12:46:27.256Z,100237.73
2022-09-13T12:49:43.794Z,100232.33
2022-09-13T12:52:38.465Z,100218.49
2022-09-13T12:55:48.708Z,100214.77
2022-09-13T12:58:41.973Z,100211.59
2022-09-13T13:01:18.465Z,100206.48
2022-09-13T13:03:56.256Z,100207.97
2022-09-13T13:06:34.669Z,100206.08
2022-09-13T13:09:28.082Z,100200.77
2022-09-13T13:12:01.353Z,100195.95
2022-09-13T13:14:53.760Z,100191.11
2022-09-13T13:17:40.738Z,100183.10
2022-09-13T13:20:48.943Z,100180.88
2022-09-13T13:23:25.556Z,100182.23
2022-09-13T13:26:15.100Z,100174.54
2022-09-13T13:29:15.785Z,100169.51
2022-09-13T13:32:13.097Z,100168.84
2022-09-13T13:34:48.166Z,100163.52
2022-09-13T13:37:33.436Z,100166.17
2022-09-13T13:40:29.324Z,100168.33
2022-09-13T13:43:32.382Z,100158.17
2022-09-13T13:46:32.285Z,100151.41
2022-09-13T13:49:46.566Z,100154.70
2022-09-13T13:52:40.873Z,100149.41
2022-09-13T13:55:42.831Z,100148.89
2022-09-13T13:58:40.107Z,100139.19
2022-09-13T14:01:29.301Z,100137.35
2022-09-13T14:04:45.059Z,100137.14
2022-09-13T14:07:34.446Z,100135.48
2022-09-13T14:10:15.158Z,100126.39
2022-09-13T14:13:03.984Z,100124.95
2022-09-13T14:15:52.809Z,100117.40
2022-09-13T14:18:43.394Z,100117.52
2022-09-13T14:21:24.914Z,100110.02
2022-09-13T14:27:04.926Z,100093.77
2022-09-13T14:29:39.341Z,100086.22
2022-09-13T14:32:17.325Z,100076.05
2022-09-13T14:34:59.329Z,100076.72
2022-09-13T14:37:34.985Z,100079.54
2022-09-13T14:40:19.189Z,100078.83
2022-09-13T14:42:52.449Z,100081.34
2022-09-13T14:45:28.605Z,100082.23
2022-09-13T14:48:07.657Z,100076.11
2022-09-13T14:50:46.995Z,100070.98
2022-09-13T14:53:22.247Z,100071.00
2022-09-13T14:55:57.302Z,100069.59
2022-09-13T14:58:33.801Z,100065.66
2022-09-13T15:01:10.373Z,100062.30
2022-09-13T15:03:45.747Z,100061.20
2022-09-13T15:06:26.536Z,100051.69
2022-09-13T15:09:02.178Z,100050.21
2022-09-13T15:11:37.108Z,100051.55
2022-09-13T15:14:31.247Z,100050.79
2022-09-13T15:17:11.051Z,100051.45
2022-09-13T15:19:45.366Z,100053.91
2022-09-13T15:22:33.310Z,100052.63
2022-09-13T15:25:06.638Z,100055.45
2022-09-13T15:27:48.708Z,100046.30
2022-09-13T15:30:26.900Z,100052.64
2022-09-13T15:33:23.236Z,100053.68
2022-09-13T15:36:14.082Z,100052.59
2022-09-13T15:39:04.972Z,100059.48
2022-09-13T15:41:38.016Z,100067.06
2022-09-13T15:44:10.906Z,100065.23
2022-09-13T15:46:48.672Z,100067.52
2022-09-13T15:49:38.912Z,100072.81
2022-09-13T15:52:11.408Z,100077.41
2022-09-13T15:54:44.426Z,100076.99
2022-09-13T15:57:22.579Z,100077.12
2022-09-13T15:59:56.263Z,100070.64
2022-09-13T16:02:32.514Z,100064.46
2022-09-13T16:05:04.625Z,100053.69
2022-09-13T16:07:36.990Z,100055.42
2022-09-13T16:10:14.781Z,100051.45
2022-09-13T16:12:47.287Z,100043.39
2022-09-13T16:15:19.796Z,100036.94
2022-09-13T16:17:54.255Z,100037.27
2022-09-13T16:20:27.799Z,100044.01
2022-09-13T16:22:59.633Z,100042.83
2022-09-13T16:25:31.753Z,100045.10
2022-09-13T16:28:03.989Z,100047.69
2022-09-13T16:30:36.901Z,100046.02
2022-09-13T16:33:09.123Z,100042.96
2022-09-13T16:35:41.767Z,100042.90
2022-09-13T16:38:17.444Z,100042.48
2022-09-13T16:40:49.218Z,100039.77
2022-09-13T16:43:21.355Z,100032.25
2022-09-13T16:45:53.346Z,100028.99
2022-09-13T16:48:25.370Z,100024.15
2022-09-13T16:51:02.302Z,100022.49
2022-09-13T16:53:36.342Z,100021.18
2022-09-13T16:56:12.734Z,100017.40
2022-09-13T16:58:46.781Z,100020.70
2022-09-13T17:01:20.754Z,100020.28
2022-09-13T17:03:54.977Z,100020.04
2022-09-13T17:06:28.487Z,100017.84
2022-09-13T17:09:03.526Z,100012.46
2022-09-13T17:11:38.032Z,100008.34
2022-09-13T17:14:12.810Z,100006.70
2022-09-13T17:16:47.847Z,100006.83
2022-09-13T17:19:23.368Z,100003.94
2022-09-13T17:21:58.030Z,100004.92
2022-09-13T17:24:32.295Z,100005.73
2022-09-13T17:27:07.243Z,100007.48
2022-09-13T17:29:39.903Z,100009.90
2022-09-13T17:32:12.194Z,100012.52
2022-09-13T17:35:12.494Z,100011.92
2022-09-13T17:37:44.951Z,100008.33
2022-09-13T17:40:18.718Z,100005.61
2022-09-13T17:42:51.912Z,100005.22
2022-09-13T17:45:25.375Z,100003.77
2022-09-13T17:47:59.476Z,100001.81
2022-09-13T17:50:32.126Z,100006.06
2022-09-13T17:53:05.691Z,100004.09
2022-09-13T17:55:38.371Z,100004.04
2022-09-13T17:58:10.939Z,100007.92
2022-09-13T18:00:44.952Z,100012.17
2022-09-13T18:03:17.656Z,100013.75
2022-09-13T18:05:56.722Z,100014.79
2022-09-13T18:08:31.176Z,100023.79
2022-09-13T18:11:14.744Z,100026.77
2022-09-13T18:13:49.723Z,100035.10
2022-09-13T18:16:24.526Z,100041.37
2022-09-13T18:18:58.461Z,100048.20
2022-09-13T18:21:34.579Z,100055.77
2022-09-13T18:24:08.814Z,100060.63
2022-09-13T18:26:41.734Z,100063.86
2022-09-13T18:29:15.896Z,100063.16
2022-09-13T18:31:48.486Z,100059.56
2022-09-13T18:34:24.614Z,100055.94
2022-09-13T18:37:00.170Z,100049.63
2022-09-13T18:39:32.881Z,100038.90
2022-09-13T18:42:05.835Z,100032.67
2022-09-13T18:44:38.821Z,100022.44
2022-09-13T18:47:14.778Z,100026.06
2022-09-13T18:49:47.381Z,100017.26
2022-09-13T18:52:20.157Z,100023.55
2022-09-13T18:54:53.060Z,100020.79
2022-09-13T18:57:25.770Z,100020.71
2022-09-13T19:00:00.294Z,100025.61
2022-09-13T19:02:33.099Z,100024.30
2022-09-13T19:05:07.095Z,100031.53
2022-09-13T19:07:45.445Z,100028.27
2022-09-13T19:10:18.161Z,100028.25
2022-09-13T19:12:50.831Z,100027.16
2022-09-13T19:15:24.329Z,100025.16
2022-09-13T19:17:56.913Z,100023.33
2022-09-13T19:20:29.791Z,100018.31
2022-09-13T19:23:03.599Z,100016.90
2022-09-13T19:25:38.769Z,100011.19
2022-09-13T19:28:11.292Z,100009.91
2022-09-13T19:30:43.921Z,100011.52
2022-09-13T19:33:17.478Z,100015.41
2022-09-13T19:35:50.428Z,100014.85
2022-09-13T19:38:22.886Z,100017.10
2022-09-13T19:41:01.636Z,100020.77
2022-09-13T19:43:36.177Z,100022.45
2022-09-13T19:46:10.832Z,100023.61
2022-09-13T19:48:44.806Z,100021.91
2022-09-13T19:51:18.883Z,100020.77
2022-09-13T19:53:57.376Z,100024.40
2022-09-13T19:56:32.879Z,100021.45
2022-09-13T19:59:06.003Z,100022.40
2022-09-13T20:01:41.283Z,100024.80
2022-09-13T20:04:19.147Z,100029.86
2022-09-13T20:06:52.991Z,100029.94
2022-09-13T20:09:25.019Z,100034.30
2022-09-13T20:12:00.840Z,100037.48
2022-09-13T20:14:34.432Z,100035.81
2022-09-13T20:17:07.245Z,100033.13
2022-09-13T20:19:43.559Z,100032.35
2022-09-13T20:22:18.672Z,100031.45
2022-09-13T20:24:50.454Z,100026.09
2022-09-13T20:27:22.438Z,100028.03
2022-09-13T20:29:55.946Z,100026.39
2022-09-13T20:32:28.068Z,100029.08
2022-09-13T20:35:00.638Z,100024.48
2022-09-13T20:37:32.474Z,100025.56
2022-09-13T20:40:04.960Z,100027.00
2022-09-13T20:42:39.813Z,100025.59
2022-09-13T20:45:13.069Z,100028.46
2022-09-13T20:47:45.195Z,100023.52
2022-09-13T20:50:18.561Z,100025.48
2022-09-13T20:52:50.523Z,100021.08
2022-09-13T20:55:22.417Z,100022.33
2022-09-13T21:01:07.826Z,100016.67
2022-09-13T21:03:41.482Z,100018.45
2022-09-13T21:06:13.690Z,100017.88
2022-09-13T21:08:49.051Z,100014.27
2022-09-13T21:11:23.048Z,100014.60
2022-09-13T21:13:56.676Z,100009.77
2022-09-13T21:16:31.861Z,100004.40
2022-09-13T21:19:04.618Z,100009.50
2022-09-13T21:22:14.708Z,100009.48
2022-09-13T21:24:49.104Z,100017.16
2022-09-13T21:27:29.444Z,100021.48
2022-09-13T21:30:15.274Z,100019.01
2022-09-13T21:32:54.139Z,100019.42
2022-09-13T21:35:26.120Z,100021.24
2022-09-13T21:37:58.121Z,100022.17
2022-09-13T21:40:29.974Z,100027.89
2022-09-13T21:43:01.849Z,100034.65
2022-09-13T21:45:33.849Z,100037.67
2022-09-13T21:48:06.330Z,100040.88
2022-09-13T21:50:38.193Z,100040.33
2022-09-13T21:53:10.057Z,100037.66
2022-09-13T21:55:42.913Z,100033.36
2022-09-13T21:58:14.877Z,100028.05
2022-09-13T22:00:46.716Z,100023.12
2022-09-13T22:03:19.189Z,100014.61
2022-09-13T22:05:58.093Z,100020.29
2022-09-13T22:08:33.320Z,100019.59
2022-09-13T22:11:10.829Z,100021.17
2022-09-13T22:13:45.992Z,100020.66
2022-09-13T22:16:20.289Z,100014.63
2022-09-13T22:18:54.425Z,100015.55
2022-09-13T22:21:28.304Z,100009.53
2022-09-13T22:24:00.634Z,100010.80
2022-09-13T22:26:35.268Z,100011.38
2022-09-13T22:29:07.980Z,100004.45
2022-09-13T22:31:41.844Z,100003.59
2022-09-13T22:34:16.913Z,100004.83
2022-09-13T22:36:49.490Z,100002.17
2022-09-13T22:39:21.301Z,99998.10
2022-09-13T22:41:53.588Z,99988.69
2022-09-13T22:44:25.345Z,99989.23
2022-09-13T22:47:00.465Z,99987.09
2022-09-13T22:49:32.421Z,99981.91
2022-09-13T22:52:04.817Z,99982.59
2022-09-13T22:54:36.603Z,99982.17
2022-09-13T22:57:08.520Z,99976.64
2022-09-13T22:59:40.393Z,99977.53
2022-09-13T23:02:12.384Z,99972.70
2022-09-13T23:04:44.851Z,99966.10
2022-09-13T23:07:16.657Z,99960.20
2022-09-13T23:09:49.003Z,99957.50
2022-09-13T23:12:21.047Z,99962.05
2022-09-13T23:14:52.950Z,99962.90
2022-09-13T23:17:24.835Z,99959.83
2022-09-13T23:19:56.691Z,99956.25
2022-09-13T23:22:28.488Z,99956.94
2022-09-13T23:25:00.476Z,99956.20
2022-09-13T23:27:32.341Z,99960.62
2022-09-13T23:30:04.505Z,99960.05
2022-09-13T23:32:36.341Z,99963.77
2022-09-13T23:35:09.783Z,99963.39
2022-09-13T23:37:41.629Z,99961.77
2022-09-13T23:40:15.037Z,99959.30
2022-09-13T23:42:46.943Z,99955.89
2022-09-13T23:45:18.929Z,99956.58
2022-09-13T23:47:50.896Z,99958.16
2022-09-13T23:50:22.826Z,99956.55
2022-09-13T23:52:55.111Z,99949.98
2022-09-13T23:55:26.861Z,99943.77
2022-09-13T23:57:58.658Z,99946.96
